ADDS METAR Data INFO
IDs: Format: Raw Decoded Include TAF

Data at: 1750 UTC 21 Oct 2017

KM21 211735Z AUTO 17006KT 10SM CLR 22/10 A3018 RMK AO2 T02210103
KM21 211715Z AUTO 17008KT 5SM HZ CLR 22/10 A3019 RMK AO2 T02190100
KM21 211655Z AUTO 18007KT 3SM HZ CLR 21/10 A3020 RMK AO2 T02130098
KM21 211635Z AUTO 16003KT 7SM CLR 21/10 A3021 RMK AO2 T02070101
KM21 211615Z AUTO 17004KT 4SM HZ CLR 20/10 A3021 RMK AO2 T02000103
KM21 211555Z AUTO 19006KT 5SM HZ CLR 20/10 A3021 RMK AO2 T01980101
KM21 211535Z AUTO 17004KT 7SM CLR 18/10 A3022 RMK AO2 T01830099
KM21 211515Z AUTO 15006KT 10SM CLR 17/10 A3021 RMK AO2 T01740100
KM21 211455Z AUTO 14004KT 10SM CLR 17/10 A3022 RMK AO2 T01650102
KM21 211435Z AUTO 15004KT 7SM CLR 15/11 A3022 RMK AO2 T01530105
KM21 211415Z AUTO 00000KT 10SM CLR 14/11 A3022 RMK AO2 T01390107
KM21 211355Z AUTO 13003KT 10SM CLR 13/10 A3021 RMK AO2 T01280103
KM21 211335Z AUTO 00000KT 7SM CLR 12/11 A3021 RMK AO2 T01200105
KM21 211315Z AUTO 00000KT 2 1/2SM BR CLR 10/10 A3020 RMK AO2 T01010101
KM21 211255Z AUTO 00000KT 1 3/4SM BR VV007 09/09 A3021 RMK AO2 T00850085
KM21 211235Z AUTO 00000KT 2 1/2SM BR CLR 08/08 A3020 RMK AO2 VIS 1 1/2V5 T00770077
KM21 211215Z AUTO 00000KT 1 1/2SM BR VV007 08/08 A3019 RMK AO2 T00750075
KM21 211155Z AUTO 00000KT 2SM BR CLR 08/08 A3019 RMK AO2 VIS 1V4 T00760076 10086 20065
KM21 211135Z AUTO 00000KT 1 3/4SM BR VV007 08/08 A3018 RMK AO2 T00750075
KM21 211115Z AUTO 00000KT 2SM BR CLR 08/08 A3018 RMK AO2 T00770077
KM21 211055Z AUTO 00000KT 2 1/2SM BR CLR 08/08 A3018 RMK AO2 T00800080
KM21 211035Z AUTO 00000KT 2SM BR CLR 08/08 A3017 RMK AO2 T00750075
KM21 211015Z AUTO 00000KT 2SM BR CLR 07/07 A3017 RMK AO2 T00710071
KM21 210955Z AUTO 00000KT 10SM CLR 07/07 A3016 RMK AO2 T00670067
KM21 210935Z AUTO 00000KT 1 3/4SM BR VV007 07/07 A3016 RMK AO2 VIS 3/4V5 T00740074
KM21 210915Z AUTO 00000KT 2 1/2SM BR CLR 08/08 A3016 RMK AO2 T00760076
KM21 210855Z AUTO 00000KT 1 1/2SM BR VV007 08/08 A3016 RMK AO2 T00810081
KM21 210835Z AUTO 00000KT 1 1/4SM BR VV007 08/08 A3016 RMK AO2 VIS 1/2V5 T00750075
KM21 210815Z AUTO 00000KT 3SM BR CLR 08/08 A3015 RMK AO2 T00810081
KM21 210755Z AUTO 00000KT 1 3/4SM BR VV007 08/08 A3015 RMK AO2 T00800080
KM21 210735Z AUTO 00000KT 3SM BR CLR 08/08 A3015 RMK AO2 T00760076
KM21 210715Z AUTO 00000KT 7SM CLR 08/08 A3015 RMK AO2 T00780078
KM21 210655Z AUTO 00000KT 1/4SM FG VV002 08/08 A3016 RMK AO2 T00780078
KM21 210635Z AUTO 00000KT 3/4SM BR VV005 09/09 A3016 RMK AO2 T00850085
KM21 210615Z AUTO 00000KT 1/4SM FG VV002 08/08 A3015 RMK AO2 T00810081
KM21 210555Z AUTO 00000KT 4SM BR CLR 08/08 A3015 RMK AO2 T00800080 10135 20080 402440050
KM21 210535Z AUTO 00000KT M1/4SM FG BKN002 09/09 A3015 RMK AO2 T00910091
KM21 210515Z AUTO 00000KT M1/4SM FG BKN002 09/09 A3015 RMK AO2 T00890089
KM21 210455Z AUTO 00000KT 1 3/4SM BR SCT002 09/09 A3016 RMK AO2 VIS 3/4V5 T00890089
KM21 210435Z AUTO 00000KT 7SM CLR 09/09 A3016 RMK AO2 T00920092
KM21 210415Z AUTO 00000KT 1/4SM FG VV002 09/09 A3016 RMK AO2 T00930093
KM21 210355Z AUTO 00000KT 4SM BR CLR 10/10 A3016 RMK AO2 T01000100
KM21 210335Z AUTO 00000KT 1 1/4SM BR VV007 10/10 A3016 RMK AO2 VIS 1/2V5 T00980098
KM21 210315Z AUTO 00000KT 5SM BR CLR 11/11 A3016 RMK AO2 T01070107
KM21 210255Z AUTO 00000KT 1SM BR VV007 11/11 A3016 RMK AO2 T01110111
KM21 210235Z AUTO 00000KT 1 1/4SM BR VV007 11/11 A3015 RMK AO2 T01110111
KM21 210215Z AUTO 00000KT 4SM BR CLR 11/11 A3015 RMK AO2 T01100110
KM21 210155Z AUTO 00000KT 1 3/4SM BR VV007 11/11 A3015 RMK AO2 T01100110
KM21 210135Z AUTO 00000KT 1 1/4SM BR VV007 11/11 A3016 RMK AO2 T01140114
KM21 210115Z AUTO 00000KT 2 1/2SM BR CLR 12/12 A3016 RMK AO2 VIS 1V5 T01150115
KM21 210055Z AUTO 00000KT 1SM BR VV007 12/12 A3016 RMK AO2 T01220122
KM21 210035Z AUTO 00000KT 5SM BR CLR 13/13 A3016 RMK AO2 T01280125
KM21 210015Z AUTO 00000KT 3SM BR CLR 13/12 A3016 RMK AO2 T01300115
KM21 202355Z AUTO 00000KT 7SM CLR 14/11 A3016 RMK AO2 T01360113 10244 20136
KM21 202335Z AUTO 00000KT 7SM CLR 15/12 A3016 RMK AO2 T01470118
KM21 202315Z AUTO 00000KT 1 1/2SM HZ VV007 16/12 A3016 RMK AO2 T01580120
KM21 202255Z AUTO 00000KT 10SM CLR 17/12 A3015 RMK AO2 T01660118
KM21 202235Z AUTO 00000KT 10SM CLR 18/12 A3015 RMK AO2 T01790121
KM21 202215Z AUTO 00000KT 10SM CLR 19/12 A3015 RMK AO2 T01920117
KM21 202155Z AUTO 00000KT 10SM CLR 22/10 A3015 RMK AO2 T02170103
KM21 202135Z AUTO 00000KT 10SM CLR 23/08 A3016 RMK AO2 T02270080
KM21 202115Z AUTO 17005KT 10SM CLR 23/09 A3016 RMK AO2 T02320086
KM21 202055Z AUTO 14004KT 10SM CLR 24/09 A3017 RMK AO2 T02430092
KM21 202035Z AUTO 15004KT 10SM CLR 24/08 A3018 RMK AO2 T02420082
KM21 202015Z AUTO 16006KT 10SM CLR 24/09 A3017 RMK AO2 T02420091
KM21 201955Z AUTO 13006KT 10SM CLR 24/09 A3018 RMK AO2 T02410090
KM21 201935Z AUTO 00000KT 5SM HZ CLR 24/09 A3018 RMK AO2 T02380094
KM21 201915Z AUTO 14003KT 10SM CLR 24/10 A3018 RMK AO2 T02410096
KM21 201855Z AUTO 00000KT 10SM CLR 24/10 A3019 RMK AO2 T02380101
KM21 201835Z AUTO 00000KT 10SM CLR 23/10 A3021 RMK AO2 T02340104
KM21 201815Z AUTO 00000KT 10SM CLR 23/10 A3022 RMK AO2 T02290104
KM21 201755Z AUTO 16003KT 10SM CLR 23/10 A3023 RMK AO2 T02250102 10225 20050
KM21 201735Z AUTO 00000KT 10SM CLR 22/10 A3025 RMK AO2 T02210103
KM21 201715Z AUTO 00000KT 7SM CLR 22/10 A3026 RMK AO2 T02170101
KM21 201655Z AUTO 15004KT 10SM CLR 21/10 A3028 RMK AO2 T02120099
KM21 201635Z AUTO 18003KT 10SM CLR 22/11 A3028 RMK AO2 T02150105
KM21 201615Z AUTO 00000KT 10SM CLR 21/11 A3028 RMK AO2 T02100113
KM21 201555Z AUTO 00000KT 10SM CLR 20/12 A3029 RMK AO2 T01980117
KM21 201535Z AUTO 00000KT 10SM CLR 19/11 A3029 RMK AO2 T01880113
KM21 201515Z AUTO 00000KT 10SM CLR 17/11 A3030 RMK AO2 T01730108
KM21 201455Z AUTO 00000KT 10SM CLR 16/11 A3030 RMK AO2 T01590108
KM21 201435Z AUTO 00000KT 10SM CLR 14/11 A3030 RMK AO2 T01440110
KM21 201415Z AUTO 00000KT 10SM CLR 13/11 A3031 RMK AO2 T01300105
KM21 201355Z AUTO 00000KT 10SM CLR 12/11 A3030 RMK AO2 T01160106
KM21 201335Z AUTO 00000KT 10SM CLR 10/10 A3030 RMK AO2 T01000100
KM21 201315Z AUTO 00000KT 10SM CLR 08/08 A3030 RMK AO2 T00810081
KM21 201255Z AUTO 00000KT 7SM CLR 07/07 A3030 RMK AO2 T00670067
KM21 201235Z AUTO 00000KT 5SM BR CLR 06/06 A3029 RMK AO2 T00570057
KM21 201215Z AUTO 00000KT 10SM CLR 05/05 A3028 RMK AO2 T00520052
KM21 201155Z AUTO 00000KT 7SM CLR 05/05 A3028 RMK AO2 T00520052 10078 20051
KM21 201135Z AUTO 00000KT 10SM CLR 05/05 A3027 RMK AO2 T00520052
KM21 201115Z AUTO 00000KT 7SM CLR 05/05 A3027 RMK AO2 T00540054
KM21 201055Z AUTO 00000KT 10SM CLR 06/06 A3027 RMK AO2 T00580058
KM21 201035Z AUTO 00000KT 2 1/2SM BR CLR 06/06 A3026 RMK AO2 VIS 3/4V5 T00580058
KM21 201015Z AUTO 00000KT 10SM CLR 06/06 A3026 RMK AO2 T00570057
KM21 200955Z AUTO 00000KT 5SM BR CLR 06/06 A3025 RMK AO2 T00590059
KM21 200935Z AUTO 00000KT 1SM BR VV007 06/06 A3025 RMK AO2 T00620062
KM21 200915Z AUTO 00000KT 10SM CLR 06/06 A3025 RMK AO2 T00610061
KM21 200855Z AUTO 00000KT 1/4SM FG VV002 07/07 A3024 RMK AO2 T00650065
KM21 200835Z AUTO 00000KT 1SM BR VV007 06/06 A3024 RMK AO2 VIS 1/4V5 T00630063
KM21 200815Z AUTO 00000KT 7SM CLR 06/06 A3024 RMK AO2 T00630063
KM21 200755Z AUTO 00000KT 4SM BR CLR 07/07 A3024 RMK AO2 T00660066
KM21 200735Z AUTO 00000KT 1/2SM FG VV005 07/07 A3024 RMK AO2 VIS 1/4V2 T00740074
KM21 200715Z AUTO 00000KT 1SM BR VV007 08/08 A3024 RMK AO2 T00750075
KM21 200655Z AUTO 00000KT 1 1/4SM BR SCT002 07/07 A3024 RMK AO2 VIS 1/4V5 T00730073
KM21 200635Z AUTO 00000KT 7SM SCT002 07/07 A3024 RMK AO2 T00720072
KM21 200615Z AUTO 00000KT 1/4SM FG OVC002 08/08 A3024 RMK AO2 T00750075
KM21 200555Z AUTO 00000KT 1/2SM FG OVC002 08/08 A3024 RMK AO2 T00770077 10139 20077 402350038